Terminal Aerodrome Forecast
Issued by NWS Cleveland, OH

Home | Current Version | Previous Version | Text Only | Print | Product List | Glossary On
Versions: 1 2 3 4 5 6 7 8 9 10 11 12 13 14 15 16 17 18
157
FTUS41 KCLE 221135
TAFCAK
TAF
KCAK 221135Z 2212/2312 16007KT 6SM BR OVC040
      TEMPO 2212/2214 5SM -SHRA BR OVC020
     FM221500 19014G22KT P6SM BKN040 OVC080
     FM230000 18012KT 3SM -SHRA OVC012=

USA.gov is the U.S. government's official web portal to all federal, state and local government web resources and services.